sensor_id;sensor_type;location;lat;lon;timestamp;pressure;altitude;pressure_sealevel;temperature;humidity
35224;BME280;21367;51.930;8.112;2022-12-07T00:02:25;100966.75;;;4.26;100.00
35224;BME280;21367;51.930;8.112;2022-12-07T00:07:32;100965.66;;;4.34;100.00
35224;BME280;21367;51.930;8.112;2022-12-07T00:12:36;100956.56;;;4.26;100.00
35224;BME280;21367;51.930;8.112;2022-12-07T00:17:41;100962.88;;;4.31;100.00
35224;BME280;21367;51.930;8.112;2022-12-07T00:22:48;100961.22;;;4.43;100.00
35224;BME280;21367;51.930;8.112;2022-12-07T00:27:52;100952.03;;;4.45;100.00
35224;BME280;21367;51.930;8.112;2022-12-07T00:32:57;100953.56;;;4.43;100.00
35224;BME280;21367;51.930;8.112;2022-12-07T00:38:04;100947.59;;;4.43;100.00
35224;BME280;21367;51.930;8.112;2022-12-07T00:43:08;100952.78;;;4.44;100.00
35224;BME280;21367;51.930;8.112;2022-12-07T00:48:12;100937.84;;;4.49;100.00
35224;BME280;21367;51.930;8.112;2022-12-07T00:53:19;100933.91;;;4.29;100.00
35224;BME280;21367;51.930;8.112;2022-12-07T00:58:23;100931.47;;;4.30;100.00
35224;BME280;21367;51.930;8.112;2022-12-07T01:03:27;100931.56;;;4.44;100.00
35224;BME280;21367;51.930;8.112;2022-12-07T01:08:34;100931.41;;;4.54;100.00
35224;BME280;21367;51.930;8.112;2022-12-07T01:13:38;100928.78;;;4.40;100.00
35224;BME280;21367;51.930;8.112;2022-12-07T01:18:42;100933.88;;;4.52;100.00
35224;BME280;21367;51.930;8.112;2022-12-07T01:23:49;100930.69;;;4.43;100.00
35224;BME280;21367;51.930;8.112;2022-12-07T01:28:54;100929.00;;;4.55;100.00
35224;BME280;21367;51.930;8.112;2022-12-07T01:34:00;100928.50;;;4.36;100.00
35224;BME280;21367;51.930;8.112;2022-12-07T01:39:09;100940.41;;;4.49;100.00
35224;BME280;21367;51.930;8.112;2022-12-07T01:44:16;100939.53;;;4.48;100.00
35224;BME280;21367;51.930;8.112;2022-12-07T01:49:25;100951.13;;;4.45;100.00
35224;BME280;21367;51.930;8.112;2022-12-07T01:54:33;100943.03;;;4.50;100.00
35224;BME280;21367;51.930;8.112;2022-12-07T01:59:38;100941.44;;;4.39;100.00
35224;BME280;21367;51.930;8.112;2022-12-07T02:04:43;100942.63;;;4.32;100.00
35224;BME280;21367;51.930;8.112;2022-12-07T02:09:50;100941.09;;;4.34;100.00
35224;BME280;21367;51.930;8.112;2022-12-07T02:14:54;100936.56;;;4.42;100.00
35224;BME280;21367;51.930;8.112;2022-12-07T02:20:09;100940.78;;;4.18;100.00
35224;BME280;21367;51.930;8.112;2022-12-07T02:25:33;100935.13;;;4.22;100.00
35224;BME280;21367;51.930;8.112;2022-12-07T02:30:47;100942.31;;;4.28;100.00
35224;BME280;21367;51.930;8.112;2022-12-07T02:35:56;100940.22;;;4.10;100.00
35224;BME280;21367;51.930;8.112;2022-12-07T02:41:05;100926.09;;;4.14;100.00
35224;BME280;21367;51.930;8.112;2022-12-07T02:46:14;100933.28;;;4.08;100.00
35224;BME280;21367;51.930;8.112;2022-12-07T02:51:21;100928.06;;;4.06;100.00
35224;BME280;21367;51.930;8.112;2022-12-07T02:56:30;100917.69;;;3.91;100.00
35224;BME280;21367;51.930;8.112;2022-12-07T03:01:49;100924.09;;;3.75;100.00
35224;BME280;21367;51.930;8.112;2022-12-07T03:07:01;100930.50;;;3.69;100.00
35224;BME280;21367;51.930;8.112;2022-12-07T03:12:13;100915.72;;;3.64;100.00
35224;BME280;21367;51.930;8.112;2022-12-07T03:17:26;100924.28;;;3.42;100.00
35224;BME280;21367;51.930;8.112;2022-12-07T03:22:37;100920.66;;;3.39;100.00
35224;BME280;21367;51.930;8.112;2022-12-07T03:27:46;100916.84;;;3.22;100.00
35224;BME280;21367;51.930;8.112;2022-12-07T03:33:02;100919.25;;;3.09;100.00
35224;BME280;21367;51.930;8.112;2022-12-07T03:38:13;100916.78;;;2.98;100.00
35224;BME280;21367;51.930;8.112;2022-12-07T03:43:21;100922.03;;;2.90;100.00
35224;BME280;21367;51.930;8.112;2022-12-07T03:48:34;100918.16;;;2.83;100.00
35224;BME280;21367;51.930;8.112;2022-12-07T03:53:43;100920.94;;;2.64;100.00
35224;BME280;21367;51.930;8.112;2022-12-07T03:58:51;100912.50;;;2.53;100.00
35224;BME280;21367;51.930;8.112;2022-12-07T04:03:59;100909.94;;;2.53;100.00
35224;BME280;21367;51.930;8.112;2022-12-07T04:09:02;100914.53;;;2.58;100.00
35224;BME280;21367;51.930;8.112;2022-12-07T04:14:07;100916.34;;;2.70;100.00
35224;BME280;21367;51.930;8.112;2022-12-07T04:19:29;100921.41;;;2.70;100.00
35224;BME280;21367;51.930;8.112;2022-12-07T04:24:34;100914.38;;;2.56;100.00
35224;BME280;21367;51.930;8.112;2022-12-07T04:29:39;100917.22;;;2.49;100.00
35224;BME280;21367;51.930;8.112;2022-12-07T04:34:45;100922.47;;;2.62;100.00
35224;BME280;21367;51.930;8.112;2022-12-07T04:39:49;100916.69;;;2.53;100.00
35224;BME280;21367;51.930;8.112;2022-12-07T04:44:54;100926.84;;;2.53;100.00
35224;BME280;21367;51.930;8.112;2022-12-07T04:50:02;100920.69;;;2.39;100.00
35224;BME280;21367;51.930;8.112;2022-12-07T04:55:07;100917.63;;;2.43;100.00
35224;BME280;21367;51.930;8.112;2022-12-07T05:00:11;100912.63;;;2.55;100.00
35224;BME280;21367;51.930;8.112;2022-12-07T05:05:18;100909.84;;;2.52;100.00
35224;BME280;21367;51.930;8.112;2022-12-07T05:10:22;100900.47;;;2.51;100.00
35224;BME280;21367;51.930;8.112;2022-12-07T05:15:26;100912.72;;;2.57;100.00
35224;BME280;21367;51.930;8.112;2022-12-07T05:20:33;100912.00;;;2.69;100.00
35224;BME280;21367;51.930;8.112;2022-12-07T05:25:37;100919.22;;;2.75;100.00
35224;BME280;21367;51.930;8.112;2022-12-07T05:30:41;100917.09;;;2.47;100.00
35224;BME280;21367;51.930;8.112;2022-12-07T05:35:48;100919.75;;;2.49;100.00
35224;BME280;21367;51.930;8.112;2022-12-07T05:40:52;100908.38;;;2.44;100.00
35224;BME280;21367;51.930;8.112;2022-12-07T05:45:56;100910.03;;;2.65;100.00
35224;BME280;21367;51.930;8.112;2022-12-07T05:51:03;100900.03;;;2.57;100.00
35224;BME280;21367;51.930;8.112;2022-12-07T05:56:06;100908.75;;;2.38;100.00
35224;BME280;21367;51.930;8.112;2022-12-07T06:01:11;100902.09;;;2.28;100.00
35224;BME280;21367;51.930;8.112;2022-12-07T06:06:18;100911.91;;;2.46;100.00
35224;BME280;21367;51.930;8.112;2022-12-07T06:11:22;100903.94;;;2.41;100.00
35224;BME280;21367;51.930;8.112;2022-12-07T06:16:38;100908.75;;;2.48;100.00
35224;BME280;21367;51.930;8.112;2022-12-07T06:21:45;100904.25;;;2.56;100.00
35224;BME280;21367;51.930;8.112;2022-12-07T06:26:48;100908.66;;;2.59;100.00
35224;BME280;21367;51.930;8.112;2022-12-07T06:31:53;100909.06;;;2.53;100.00
35224;BME280;21367;51.930;8.112;2022-12-07T06:36:59;100909.84;;;2.52;100.00
35224;BME280;21367;51.930;8.112;2022-12-07T06:42:03;100915.94;;;2.32;100.00
35224;BME280;21367;51.930;8.112;2022-12-07T06:47:08;100912.38;;;2.30;100.00
35224;BME280;21367;51.930;8.112;2022-12-07T06:52:14;100913.25;;;2.30;100.00
35224;BME280;21367;51.930;8.112;2022-12-07T06:57:18;100905.28;;;2.04;100.00
35224;BME280;21367;51.930;8.112;2022-12-07T07:02:23;100908.75;;;2.16;100.00
35224;BME280;21367;51.930;8.112;2022-12-07T07:07:29;100907.31;;;1.98;100.00
35224;BME280;21367;51.930;8.112;2022-12-07T07:12:33;100921.31;;;2.15;100.00
35224;BME280;21367;51.930;8.112;2022-12-07T07:17:37;100924.47;;;1.80;100.00
35224;BME280;21367;51.930;8.112;2022-12-07T07:22:43;100921.78;;;1.89;100.00
35224;BME280;21367;51.930;8.112;2022-12-07T07:27:47;100922.19;;;1.83;100.00
35224;BME280;21367;51.930;8.112;2022-12-07T07:32:51;100931.69;;;1.75;100.00
35224;BME280;21367;51.930;8.112;2022-12-07T07:37:57;100931.78;;;1.87;100.00
35224;BME280;21367;51.930;8.112;2022-12-07T07:43:01;100939.28;;;1.75;100.00
35224;BME280;21367;51.930;8.112;2022-12-07T07:48:06;100940.19;;;1.66;100.00
35224;BME280;21367;51.930;8.112;2022-12-07T07:53:12;100942.38;;;1.61;100.00
35224;BME280;21367;51.930;8.112;2022-12-07T07:58:16;100950.81;;;1.82;100.00
35224;BME280;21367;51.930;8.112;2022-12-07T08:03:21;100950.41;;;1.88;100.00
35224;BME280;21367;51.930;8.112;2022-12-07T08:08:27;100951.03;;;1.95;100.00
35224;BME280;21367;51.930;8.112;2022-12-07T08:13:31;100940.28;;;1.88;100.00
35224;BME280;21367;51.930;8.112;2022-12-07T08:18:35;100950.91;;;1.94;100.00
35224;BME280;21367;51.930;8.112;2022-12-07T08:23:42;100940.56;;;1.80;100.00
35224;BME280;21367;51.930;8.112;2022-12-07T08:28:46;100947.94;;;2.20;100.00
35224;BME280;21367;51.930;8.112;2022-12-07T08:33:50;100945.25;;;2.18;100.00
35224;BME280;21367;51.930;8.112;2022-12-07T08:38:57;100938.22;;;2.36;100.00
35224;BME280;21367;51.930;8.112;2022-12-07T08:44:02;100943.84;;;2.22;100.00
35224;BME280;21367;51.930;8.112;2022-12-07T08:49:08;100936.47;;;2.35;100.00
35224;BME280;21367;51.930;8.112;2022-12-07T08:54:17;100942.28;;;2.34;100.00
35224;BME280;21367;51.930;8.112;2022-12-07T08:59:22;100941.38;;;2.34;100.00
35224;BME280;21367;51.930;8.112;2022-12-07T09:04:27;100945.69;;;2.35;100.00
35224;BME280;21367;51.930;8.112;2022-12-07T09:09:33;100936.97;;;2.53;100.00
35224;BME280;21367;51.930;8.112;2022-12-07T09:14:37;100942.44;;;2.91;100.00
35224;BME280;21367;51.930;8.112;2022-12-07T09:19:41;100944.56;;;2.97;100.00
35224;BME280;21367;51.930;8.112;2022-12-07T09:24:48;100957.22;;;3.07;100.00
35224;BME280;21367;51.930;8.112;2022-12-07T09:29:53;100946.88;;;2.94;100.00
35224;BME280;21367;51.930;8.112;2022-12-07T09:34:56;100943.28;;;3.36;100.00
35224;BME280;21367;51.930;8.112;2022-12-07T09:40:04;100952.47;;;3.57;100.00
35224;BME280;21367;51.930;8.112;2022-12-07T09:45:15;100941.44;;;3.68;100.00
35224;BME280;21367;51.930;8.112;2022-12-07T09:50:26;100938.69;;;4.01;100.00
35224;BME280;21367;51.930;8.112;2022-12-07T09:55:35;100936.03;;;4.11;100.00
35224;BME280;21367;51.930;8.112;2022-12-07T10:00:40;100943.44;;;3.84;100.00
35224;BME280;21367;51.930;8.112;2022-12-07T10:05:46;100936.47;;;4.17;100.00
35224;BME280;21367;51.930;8.112;2022-12-07T10:10:55;100934.16;;;4.08;100.00
35224;BME280;21367;51.930;8.112;2022-12-07T10:16:01;100934.94;;;3.96;100.00
35224;BME280;21367;51.930;8.112;2022-12-07T10:21:21;100937.47;;;3.84;100.00
35224;BME280;21367;51.930;8.112;2022-12-07T10:26:32;100920.91;;;3.89;100.00
35224;BME280;21367;51.930;8.112;2022-12-07T10:31:38;100919.69;;;3.96;100.00
35224;BME280;21367;51.930;8.112;2022-12-07T10:36:42;100915.25;;;3.93;100.00
35224;BME280;21367;51.930;8.112;2022-12-07T10:41:57;100902.06;;;4.22;100.00
35224;BME280;21367;51.930;8.112;2022-12-07T10:52:42;100910.84;;;4.51;100.00
35224;BME280;21367;51.930;8.112;2022-12-07T10:58:07;100903.34;;;5.02;100.00
35224;BME280;21367;51.930;8.112;2022-12-07T11:03:35;100893.25;;;4.79;100.00
35224;BME280;21367;51.930;8.112;2022-12-07T11:08:54;100890.50;;;4.76;100.00
35224;BME280;21367;51.930;8.112;2022-12-07T11:14:14;100887.69;;;4.84;100.00
35224;BME280;21367;51.930;8.112;2022-12-07T11:19:42;100881.84;;;5.24;100.00
35224;BME280;21367;51.930;8.112;2022-12-07T11:24:57;100870.47;;;5.19;100.00
35224;BME280;21367;51.930;8.112;2022-12-07T11:30:26;100865.72;;;4.98;100.00
35224;BME280;21367;51.930;8.112;2022-12-07T11:35:46;100854.19;;;5.17;100.00
35224;BME280;21367;51.930;8.112;2022-12-07T11:40:58;100848.53;;;5.61;100.00
35224;BME280;21367;51.930;8.112;2022-12-07T11:46:16;100841.41;;;5.55;100.00
35224;BME280;21367;51.930;8.112;2022-12-07T11:51:24;100837.06;;;5.54;100.00
35224;BME280;21367;51.930;8.112;2022-12-07T11:56:30;100840.59;;;5.56;100.00
35224;BME280;21367;51.930;8.112;2022-12-07T12:01:59;100834.00;;;5.73;100.00
35224;BME280;21367;51.930;8.112;2022-12-07T12:07:06;100824.31;;;5.80;97.99
35224;BME280;21367;51.930;8.112;2022-12-07T12:12:27;100824.66;;;6.13;93.90
35224;BME280;21367;51.930;8.112;2022-12-07T12:17:51;100824.25;;;6.48;92.23
35224;BME280;21367;51.930;8.112;2022-12-07T12:23:05;100815.16;;;6.39;93.97
35224;BME280;21367;51.930;8.112;2022-12-07T12:28:22;100823.66;;;6.24;94.94
35224;BME280;21367;51.930;8.112;2022-12-07T12:33:31;100816.25;;;5.88;98.62
35224;BME280;21367;51.930;8.112;2022-12-07T12:38:48;100811.06;;;5.20;100.00
35224;BME280;21367;51.930;8.112;2022-12-07T12:43:54;100804.41;;;5.35;100.00
35224;BME280;21367;51.930;8.112;2022-12-07T12:49:19;100805.78;;;5.83;100.00
35224;BME280;21367;51.930;8.112;2022-12-07T12:54:35;100799.00;;;5.97;100.00
35224;BME280;21367;51.930;8.112;2022-12-07T12:59:41;100795.66;;;6.26;100.00
35224;BME280;21367;51.930;8.112;2022-12-07T13:04:53;100784.88;;;6.45;97.30
35224;BME280;21367;51.930;8.112;2022-12-07T13:09:58;100792.19;;;6.39;96.14
35224;BME280;21367;51.930;8.112;2022-12-07T13:15:36;100785.38;;;6.24;95.92
35224;BME280;21367;51.930;8.112;2022-12-07T13:21:00;100780.16;;;6.36;97.52
35224;BME280;21367;51.930;8.112;2022-12-07T13:26:12;100774.91;;;6.63;96.60
35224;BME280;21367;51.930;8.112;2022-12-07T13:31:32;100773.75;;;6.72;95.97
35224;BME280;21367;51.930;8.112;2022-12-07T13:36:44;100772.25;;;6.46;94.02
35224;BME280;21367;51.930;8.112;2022-12-07T13:41:50;100764.34;;;6.29;96.12
35224;BME280;21367;51.930;8.112;2022-12-07T13:47:04;100766.19;;;6.59;93.49
35224;BME280;21367;51.930;8.112;2022-12-07T13:52:19;100759.72;;;6.36;93.66
35224;BME280;21367;51.930;8.112;2022-12-07T13:57:25;100756.19;;;6.34;92.15
35224;BME280;21367;51.930;8.112;2022-12-07T14:02:30;100758.41;;;6.43;92.20
35224;BME280;21367;51.930;8.112;2022-12-07T14:07:54;100755.13;;;6.02;92.82
35224;BME280;21367;51.930;8.112;2022-12-07T14:12:59;100763.72;;;5.63;93.23
35224;BME280;21367;51.930;8.112;2022-12-07T14:18:03;100763.53;;;5.47;93.49
35224;BME280;21367;51.930;8.112;2022-12-07T14:23:26;100764.72;;;5.25;96.77
35224;BME280;21367;51.930;8.112;2022-12-07T14:28:35;100746.50;;;5.06;99.08
35224;BME280;21367;51.930;8.112;2022-12-07T14:33:40;100742.00;;;4.50;100.00
35224;BME280;21367;51.930;8.112;2022-12-07T14:38:46;100735.19;;;4.62;100.00
35224;BME280;21367;51.930;8.112;2022-12-07T14:43:54;100747.09;;;4.50;100.00
35224;BME280;21367;51.930;8.112;2022-12-07T14:48:59;100740.44;;;4.14;100.00
35224;BME280;21367;51.930;8.112;2022-12-07T14:54:15;100743.81;;;4.26;100.00
35224;BME280;21367;51.930;8.112;2022-12-07T14:59:19;100744.38;;;4.10;100.00
35224;BME280;21367;51.930;8.112;2022-12-07T15:04:23;100737.84;;;3.52;100.00
35224;BME280;21367;51.930;8.112;2022-12-07T15:09:32;100725.38;;;3.92;100.00
35224;BME280;21367;51.930;8.112;2022-12-07T15:14:37;100734.38;;;3.63;100.00
35224;BME280;21367;51.930;8.112;2022-12-07T15:19:42;100741.28;;;3.89;100.00
35224;BME280;21367;51.930;8.112;2022-12-07T15:24:49;100736.38;;;3.67;100.00
35224;BME280;21367;51.930;8.112;2022-12-07T15:29:53;100730.25;;;3.89;100.00
35224;BME280;21367;51.930;8.112;2022-12-07T15:34:58;100728.75;;;3.67;100.00
35224;BME280;21367;51.930;8.112;2022-12-07T15:40:06;100715.41;;;3.58;100.00
35224;BME280;21367;51.930;8.112;2022-12-07T15:45:11;100716.28;;;3.59;100.00
35224;BME280;21367;51.930;8.112;2022-12-07T15:50:17;100716.84;;;3.55;100.00
35224;BME280;21367;51.930;8.112;2022-12-07T15:55:23;100708.41;;;3.67;100.00
35224;BME280;21367;51.930;8.112;2022-12-07T16:00:27;100709.38;;;3.69;100.00
35224;BME280;21367;51.930;8.112;2022-12-07T16:05:32;100704.56;;;3.61;100.00
35224;BME280;21367;51.930;8.112;2022-12-07T16:10:38;100702.75;;;3.71;100.00
35224;BME280;21367;51.930;8.112;2022-12-07T16:15:43;100699.38;;;3.59;100.00
35224;BME280;21367;51.930;8.112;2022-12-07T16:20:50;100703.34;;;3.56;100.00
35224;BME280;21367;51.930;8.112;2022-12-07T16:26:03;100699.91;;;3.67;100.00
35224;BME280;21367;51.930;8.112;2022-12-07T16:31:09;100695.31;;;3.50;100.00
35224;BME280;21367;51.930;8.112;2022-12-07T16:36:14;100697.34;;;3.30;100.00
35224;BME280;21367;51.930;8.112;2022-12-07T16:41:22;100694.88;;;3.32;100.00
35224;BME280;21367;51.930;8.112;2022-12-07T16:46:26;100685.19;;;3.26;100.00
35224;BME280;21367;51.930;8.112;2022-12-07T16:51:30;100681.00;;;3.27;100.00
35224;BME280;21367;51.930;8.112;2022-12-07T16:56:37;100678.03;;;3.20;100.00
35224;BME280;21367;51.930;8.112;2022-12-07T17:01:42;100677.47;;;3.24;100.00
35224;BME280;21367;51.930;8.112;2022-12-07T17:06:45;100663.88;;;3.36;100.00
35224;BME280;21367;51.930;8.112;2022-12-07T17:11:52;100665.97;;;3.30;100.00
35224;BME280;21367;51.930;8.112;2022-12-07T17:16:57;100657.22;;;3.38;100.00
35224;BME280;21367;51.930;8.112;2022-12-07T17:22:00;100657.13;;;3.36;100.00
35224;BME280;21367;51.930;8.112;2022-12-07T17:27:07;100650.63;;;3.28;100.00
35224;BME280;21367;51.930;8.112;2022-12-07T17:32:11;100655.28;;;3.10;100.00
35224;BME280;21367;51.930;8.112;2022-12-07T17:37:14;100656.47;;;3.27;100.00
35224;BME280;21367;51.930;8.112;2022-12-07T17:42:21;100659.25;;;3.30;100.00
35224;BME280;21367;51.930;8.112;2022-12-07T17:47:39;100641.81;;;3.11;100.00
35224;BME280;21367;51.930;8.112;2022-12-07T17:52:43;100637.84;;;3.15;100.00
35224;BME280;21367;51.930;8.112;2022-12-07T17:58:03;100630.75;;;3.22;100.00
35224;BME280;21367;51.930;8.112;2022-12-07T18:03:07;100631.22;;;3.17;100.00
35224;BME280;21367;51.930;8.112;2022-12-07T18:08:11;100622.91;;;3.19;100.00
35224;BME280;21367;51.930;8.112;2022-12-07T18:13:18;100621.38;;;3.21;100.00
35224;BME280;21367;51.930;8.112;2022-12-07T18:18:35;100619.41;;;3.06;100.00
35224;BME280;21367;51.930;8.112;2022-12-07T18:23:39;100625.16;;;3.15;100.00
35224;BME280;21367;51.930;8.112;2022-12-07T18:28:46;100622.28;;;3.10;100.00
35224;BME280;21367;51.930;8.112;2022-12-07T18:33:50;100614.00;;;3.13;100.00
35224;BME280;21367;51.930;8.112;2022-12-07T18:38:55;100615.56;;;3.11;100.00
35224;BME280;21367;51.930;8.112;2022-12-07T18:44:03;100614.56;;;2.97;100.00
35224;BME280;21367;51.930;8.112;2022-12-07T18:49:08;100606.09;;;2.96;100.00
35224;BME280;21367;51.930;8.112;2022-12-07T18:54:14;100608.38;;;3.17;100.00
35224;BME280;21367;51.930;8.112;2022-12-07T18:59:20;100605.50;;;3.00;100.00
35224;BME280;21367;51.930;8.112;2022-12-07T19:04:36;100606.38;;;3.13;100.00
35224;BME280;21367;51.930;8.112;2022-12-07T19:09:40;100613.13;;;3.00;100.00
35224;BME280;21367;51.930;8.112;2022-12-07T19:14:47;100604.63;;;3.12;100.00
35224;BME280;21367;51.930;8.112;2022-12-07T19:19:50;100591.13;;;3.13;100.00
35224;BME280;21367;51.930;8.112;2022-12-07T19:24:55;100590.25;;;3.12;100.00
35224;BME280;21367;51.930;8.112;2022-12-07T19:30:01;100598.59;;;2.98;100.00
35224;BME280;21367;51.930;8.112;2022-12-07T19:35:06;100594.03;;;3.06;100.00
35224;BME280;21367;51.930;8.112;2022-12-07T19:40:11;100587.22;;;3.05;100.00
35224;BME280;21367;51.930;8.112;2022-12-07T19:45:18;100589.84;;;3.06;100.00
35224;BME280;21367;51.930;8.112;2022-12-07T19:50:22;100584.19;;;3.10;100.00
35224;BME280;21367;51.930;8.112;2022-12-07T19:55:26;100585.97;;;3.11;100.00
35224;BME280;21367;51.930;8.112;2022-12-07T20:00:32;100567.78;;;2.93;100.00
35224;BME280;21367;51.930;8.112;2022-12-07T20:05:36;100556.78;;;2.81;100.00
35224;BME280;21367;51.930;8.112;2022-12-07T20:10:40;100547.28;;;2.90;100.00
35224;BME280;21367;51.930;8.112;2022-12-07T20:15:46;100545.44;;;2.76;100.00
35224;BME280;21367;51.930;8.112;2022-12-07T20:20:54;100535.06;;;2.73;100.00
35224;BME280;21367;51.930;8.112;2022-12-07T20:26:00;100538.41;;;2.60;100.00
35224;BME280;21367;51.930;8.112;2022-12-07T20:31:07;100541.03;;;2.73;100.00
35224;BME280;21367;51.930;8.112;2022-12-07T20:36:11;100530.16;;;2.99;100.00
35224;BME280;21367;51.930;8.112;2022-12-07T20:41:15;100524.56;;;2.80;100.00
35224;BME280;21367;51.930;8.112;2022-12-07T20:46:34;100522.03;;;2.80;100.00
35224;BME280;21367;51.930;8.112;2022-12-07T20:51:38;100511.53;;;2.75;100.00
35224;BME280;21367;51.930;8.112;2022-12-07T20:56:42;100506.03;;;2.69;100.00
35224;BME280;21367;51.930;8.112;2022-12-07T21:01:49;100509.94;;;2.64;100.00
35224;BME280;21367;51.930;8.112;2022-12-07T21:06:53;100510.38;;;2.70;100.00
35224;BME280;21367;51.930;8.112;2022-12-07T21:11:57;100509.72;;;2.49;100.00
35224;BME280;21367;51.930;8.112;2022-12-07T21:17:04;100508.50;;;2.56;100.00
35224;BME280;21367;51.930;8.112;2022-12-07T21:22:10;100506.97;;;2.35;100.00
35224;BME280;21367;51.930;8.112;2022-12-07T21:27:14;100498.50;;;2.46;100.00
35224;BME280;21367;51.930;8.112;2022-12-07T21:32:21;100503.44;;;2.56;100.00
35224;BME280;21367;51.930;8.112;2022-12-07T21:37:26;100506.53;;;2.40;100.00
35224;BME280;21367;51.930;8.112;2022-12-07T21:42:30;100508.63;;;2.34;100.00
35224;BME280;21367;51.930;8.112;2022-12-07T21:47:36;100499.94;;;2.30;100.00
35224;BME280;21367;51.930;8.112;2022-12-07T21:52:40;100501.34;;;2.50;100.00
35224;BME280;21367;51.930;8.112;2022-12-07T21:57:44;100491.22;;;2.27;100.00
35224;BME280;21367;51.930;8.112;2022-12-07T22:02:50;100491.66;;;2.45;100.00
35224;BME280;21367;51.930;8.112;2022-12-07T22:07:54;100482.19;;;2.30;100.00
35224;BME280;21367;51.930;8.112;2022-12-07T22:12:59;100492.53;;;2.34;100.00
35224;BME280;21367;51.930;8.112;2022-12-07T22:18:06;100489.66;;;2.41;100.00
35224;BME280;21367;51.930;8.112;2022-12-07T22:23:11;100483.50;;;2.49;100.00
35224;BME280;21367;51.930;8.112;2022-12-07T22:28:16;100483.28;;;2.46;100.00
35224;BME280;21367;51.930;8.112;2022-12-07T22:33:23;100480.81;;;2.59;100.00
35224;BME280;21367;51.930;8.112;2022-12-07T22:38:27;100475.75;;;2.47;100.00
35224;BME280;21367;51.930;8.112;2022-12-07T22:43:31;100469.47;;;2.54;100.00
35224;BME280;21367;51.930;8.112;2022-12-07T22:48:38;100464.72;;;2.47;100.00
35224;BME280;21367;51.930;8.112;2022-12-07T22:53:42;100458.13;;;2.49;100.00
35224;BME280;21367;51.930;8.112;2022-12-07T22:58:46;100451.84;;;2.44;100.00
35224;BME280;21367;51.930;8.112;2022-12-07T23:03:54;100438.72;;;2.38;100.00
35224;BME280;21367;51.930;8.112;2022-12-07T23:09:00;100435.53;;;2.40;100.00
35224;BME280;21367;51.930;8.112;2022-12-07T23:14:09;100431.25;;;2.39;100.00
35224;BME280;21367;51.930;8.112;2022-12-07T23:19:18;100429.47;;;2.38;100.00
35224;BME280;21367;51.930;8.112;2022-12-07T23:24:21;100422.19;;;2.43;100.00
35224;BME280;21367;51.930;8.112;2022-12-07T23:29:26;100408.28;;;2.38;100.00
35224;BME280;21367;51.930;8.112;2022-12-07T23:34:33;100412.94;;;2.31;100.00
35224;BME280;21367;51.930;8.112;2022-12-07T23:39:37;100408.09;;;2.35;100.00
35224;BME280;21367;51.930;8.112;2022-12-07T23:44:41;100419.66;;;2.31;100.00
35224;BME280;21367;51.930;8.112;2022-12-07T23:49:49;100409.00;;;2.35;100.00
35224;BME280;21367;51.930;8.112;2022-12-07T23:54:54;100395.56;;;2.13;100.00
35224;BME280;21367;51.930;8.112;2022-12-07T23:59:59;100396.63;;;2.28;100.00
